sensor_id;sensor_type;location;lat;lon;timestamp;P1;durP1;ratioP1;P2;durP2;ratioP2
67816;SDS011;54614;47.576;7.524;2023-03-14T00:02:09;8.40;;;3.47;;
67816;SDS011;54614;47.576;7.524;2023-03-14T00:04:35;8.75;;;3.80;;
67816;SDS011;54614;47.576;7.524;2023-03-14T00:07:02;5.60;;;3.65;;
67816;SDS011;54614;47.576;7.524;2023-03-14T00:09:28;7.07;;;3.70;;
67816;SDS011;54614;47.576;7.524;2023-03-14T00:11:55;8.02;;;3.53;;
67816;SDS011;54614;47.576;7.524;2023-03-14T00:14:22;7.65;;;3.50;;
67816;SDS011;54614;47.576;7.524;2023-03-14T00:16:48;8.77;;;3.70;;
67816;SDS011;54614;47.576;7.524;2023-03-14T00:19:14;7.28;;;3.50;;
67816;SDS011;54614;47.576;7.524;2023-03-14T00:21:40;6.60;;;3.17;;
67816;SDS011;54614;47.576;7.524;2023-03-14T00:24:07;5.43;;;3.53;;
67816;SDS011;54614;47.576;7.524;2023-03-14T00:26:34;8.50;;;3.50;;
67816;SDS011;54614;47.576;7.524;2023-03-14T00:28:59;5.68;;;3.13;;
67816;SDS011;54614;47.576;7.524;2023-03-14T00:31:25;11.27;;;3.40;;
67816;SDS011;54614;47.576;7.524;2023-03-14T00:33:52;6.65;;;3.28;;
67816;SDS011;54614;47.576;7.524;2023-03-14T00:36:18;6.57;;;3.70;;
67816;SDS011;54614;47.576;7.524;2023-03-14T00:38:46;6.13;;;3.25;;
67816;SDS011;54614;47.576;7.524;2023-03-14T00:41:16;4.65;;;2.92;;
67816;SDS011;54614;47.576;7.524;2023-03-14T00:43:45;5.40;;;3.15;;
67816;SDS011;54614;47.576;7.524;2023-03-14T00:46:11;6.40;;;3.35;;
67816;SDS011;54614;47.576;7.524;2023-03-14T00:48:38;8.82;;;3.30;;
67816;SDS011;54614;47.576;7.524;2023-03-14T00:51:04;8.48;;;3.25;;
67816;SDS011;54614;47.576;7.524;2023-03-14T00:53:35;6.95;;;3.30;;
67816;SDS011;54614;47.576;7.524;2023-03-14T00:56:03;6.78;;;3.00;;
67816;SDS011;54614;47.576;7.524;2023-03-14T00:58:32;7.93;;;2.95;;
67816;SDS011;54614;47.576;7.524;2023-03-14T01:00:58;8.13;;;3.03;;
67816;SDS011;54614;47.576;7.524;2023-03-14T01:03:24;4.53;;;2.88;;
67816;SDS011;54614;47.576;7.524;2023-03-14T01:05:50;7.72;;;2.80;;
67816;SDS011;54614;47.576;7.524;2023-03-14T01:08:16;5.95;;;3.25;;
67816;SDS011;54614;47.576;7.524;2023-03-14T01:10:42;6.93;;;3.00;;
67816;SDS011;54614;47.576;7.524;2023-03-14T01:13:08;4.47;;;2.80;;
67816;SDS011;54614;47.576;7.524;2023-03-14T01:15:35;7.25;;;2.90;;
67816;SDS011;54614;47.576;7.524;2023-03-14T01:18:02;7.22;;;2.90;;
67816;SDS011;54614;47.576;7.524;2023-03-14T01:20:29;7.22;;;2.92;;
67816;SDS011;54614;47.576;7.524;2023-03-14T01:22:54;6.55;;;3.10;;
67816;SDS011;54614;47.576;7.524;2023-03-14T01:25:20;5.25;;;2.72;;
67816;SDS011;54614;47.576;7.524;2023-03-14T01:27:47;4.32;;;2.63;;
67816;SDS011;54614;47.576;7.524;2023-03-14T01:30:13;5.57;;;2.65;;
67816;SDS011;54614;47.576;7.524;2023-03-14T01:32:39;5.53;;;2.70;;
67816;SDS011;54614;47.576;7.524;2023-03-14T01:35:05;5.38;;;2.75;;
67816;SDS011;54614;47.576;7.524;2023-03-14T01:37:31;6.50;;;2.80;;
67816;SDS011;54614;47.576;7.524;2023-03-14T01:39:57;5.75;;;2.83;;
67816;SDS011;54614;47.576;7.524;2023-03-14T01:42:22;4.28;;;2.42;;
67816;SDS011;54614;47.576;7.524;2023-03-14T01:44:49;4.00;;;2.45;;
67816;SDS011;54614;47.576;7.524;2023-03-14T01:47:28;7.07;;;2.58;;
67816;SDS011;54614;47.576;7.524;2023-03-14T01:50:06;6.68;;;2.60;;
67816;SDS011;54614;47.576;7.524;2023-03-14T01:52:41;3.53;;;2.47;;
67816;SDS011;54614;47.576;7.524;2023-03-14T01:55:14;6.10;;;2.40;;
67816;SDS011;54614;47.576;7.524;2023-03-14T01:57:52;3.47;;;2.22;;
67816;SDS011;54614;47.576;7.524;2023-03-14T02:00:26;3.35;;;2.53;;
67816;SDS011;54614;47.576;7.524;2023-03-14T02:02:53;6.22;;;2.55;;
67816;SDS011;54614;47.576;7.524;2023-03-14T02:05:27;8.15;;;2.92;;
67816;SDS011;54614;47.576;7.524;2023-03-14T02:07:59;6.40;;;2.40;;
67816;SDS011;54614;47.576;7.524;2023-03-14T02:10:30;6.57;;;2.60;;
67816;SDS011;54614;47.576;7.524;2023-03-14T02:13:02;4.30;;;2.45;;
67816;SDS011;54614;47.576;7.524;2023-03-14T02:15:30;9.05;;;2.40;;
67816;SDS011;54614;47.576;7.524;2023-03-14T02:17:57;4.53;;;2.28;;
67816;SDS011;54614;47.576;7.524;2023-03-14T02:23:47;5.07;;;2.38;;
67816;SDS011;54614;47.576;7.524;2023-03-14T02:26:29;4.25;;;2.08;;
67816;SDS011;54614;47.576;7.524;2023-03-14T02:29:03;3.95;;;2.10;;
67816;SDS011;54614;47.576;7.524;2023-03-14T02:31:29;3.67;;;2.20;;
67816;SDS011;54614;47.576;7.524;2023-03-14T02:33:55;5.35;;;1.90;;
67816;SDS011;54614;47.576;7.524;2023-03-14T02:36:23;2.50;;;1.95;;
67816;SDS011;54614;47.576;7.524;2023-03-14T02:38:52;3.72;;;2.00;;
67816;SDS011;54614;47.576;7.524;2023-03-14T02:41:31;3.80;;;1.98;;
67816;SDS011;54614;47.576;7.524;2023-03-14T02:43:57;3.22;;;2.10;;
67816;SDS011;54614;47.576;7.524;2023-03-14T02:46:23;3.60;;;2.20;;
67816;SDS011;54614;47.576;7.524;2023-03-14T02:49:02;4.82;;;1.90;;
67816;SDS011;54614;47.576;7.524;2023-03-14T02:51:33;5.65;;;2.00;;
67816;SDS011;54614;47.576;7.524;2023-03-14T02:54:00;5.38;;;2.20;;
67816;SDS011;54614;47.576;7.524;2023-03-14T02:56:26;4.80;;;1.90;;
67816;SDS011;54614;47.576;7.524;2023-03-14T02:58:52;3.33;;;1.83;;
67816;SDS011;54614;47.576;7.524;2023-03-14T03:01:18;3.90;;;1.80;;
67816;SDS011;54614;47.576;7.524;2023-03-14T03:03:44;3.05;;;1.98;;
67816;SDS011;54614;47.576;7.524;2023-03-14T03:06:09;2.97;;;1.90;;
67816;SDS011;54614;47.576;7.524;2023-03-14T03:08:35;2.90;;;1.75;;
67816;SDS011;54614;47.576;7.524;2023-03-14T03:11:01;4.18;;;1.77;;
67816;SDS011;54614;47.576;7.524;2023-03-14T03:13:27;2.97;;;1.80;;
67816;SDS011;54614;47.576;7.524;2023-03-14T03:15:53;3.85;;;1.90;;
67816;SDS011;54614;47.576;7.524;2023-03-14T03:18:19;2.08;;;1.88;;
67816;SDS011;54614;47.576;7.524;2023-03-14T03:20:45;2.08;;;1.88;;
67816;SDS011;54614;47.576;7.524;2023-03-14T03:23:11;3.45;;;2.00;;
67816;SDS011;54614;47.576;7.524;2023-03-14T03:25:37;3.97;;;1.70;;
67816;SDS011;54614;47.576;7.524;2023-03-14T03:28:03;1.60;;;1.50;;
67816;SDS011;54614;47.576;7.524;2023-03-14T03:30:33;3.15;;;1.80;;
67816;SDS011;54614;47.576;7.524;2023-03-14T03:33:06;4.43;;;1.70;;
67816;SDS011;54614;47.576;7.524;2023-03-14T03:35:32;2.65;;;1.58;;
67816;SDS011;54614;47.576;7.524;2023-03-14T03:37:58;2.00;;;1.80;;
67816;SDS011;54614;47.576;7.524;2023-03-14T03:40:24;7.95;;;1.80;;
67816;SDS011;54614;47.576;7.524;2023-03-14T03:42:50;3.85;;;2.03;;
67816;SDS011;54614;47.576;7.524;2023-03-14T03:45:16;1.65;;;1.55;;
67816;SDS011;54614;47.576;7.524;2023-03-14T03:47:42;2.78;;;1.83;;
67816;SDS011;54614;47.576;7.524;2023-03-14T03:50:08;4.25;;;1.80;;
67816;SDS011;54614;47.576;7.524;2023-03-14T03:52:34;4.25;;;1.80;;
67816;SDS011;54614;47.576;7.524;2023-03-14T03:55:00;3.72;;;1.63;;
67816;SDS011;54614;47.576;7.524;2023-03-14T03:57:26;2.17;;;1.52;;
67816;SDS011;54614;47.576;7.524;2023-03-14T03:59:52;3.47;;;1.75;;
67816;SDS011;54614;47.576;7.524;2023-03-14T04:02:18;3.13;;;1.70;;
67816;SDS011;54614;47.576;7.524;2023-03-14T04:04:43;1.58;;;1.40;;
67816;SDS011;54614;47.576;7.524;2023-03-14T04:07:09;2.30;;;1.65;;
67816;SDS011;54614;47.576;7.524;2023-03-14T04:09:36;1.65;;;1.45;;
67816;SDS011;54614;47.576;7.524;2023-03-14T04:12:03;2.13;;;1.45;;
67816;SDS011;54614;47.576;7.524;2023-03-14T04:14:29;2.20;;;1.52;;
67816;SDS011;54614;47.576;7.524;2023-03-14T04:16:54;5.45;;;1.63;;
67816;SDS011;54614;47.576;7.524;2023-03-14T04:19:20;2.63;;;1.50;;
67816;SDS011;54614;47.576;7.524;2023-03-14T04:21:46;3.28;;;1.60;;
67816;SDS011;54614;47.576;7.524;2023-03-14T04:24:12;2.33;;;1.65;;
67816;SDS011;54614;47.576;7.524;2023-03-14T04:26:38;4.90;;;1.98;;
67816;SDS011;54614;47.576;7.524;2023-03-14T04:29:04;2.50;;;1.45;;
67816;SDS011;54614;47.576;7.524;2023-03-14T04:31:30;1.80;;;1.60;;
67816;SDS011;54614;47.576;7.524;2023-03-14T04:33:56;2.72;;;1.70;;
67816;SDS011;54614;47.576;7.524;2023-03-14T04:36:21;1.60;;;1.50;;
67816;SDS011;54614;47.576;7.524;2023-03-14T04:38:47;1.95;;;1.45;;
67816;SDS011;54614;47.576;7.524;2023-03-14T04:41:13;4.72;;;1.77;;
67816;SDS011;54614;47.576;7.524;2023-03-14T04:43:39;4.25;;;1.70;;
67816;SDS011;54614;47.576;7.524;2023-03-14T04:46:04;3.03;;;1.67;;
67816;SDS011;54614;47.576;7.524;2023-03-14T04:48:31;1.60;;;1.50;;
67816;SDS011;54614;47.576;7.524;2023-03-14T04:50:56;3.08;;;1.40;;
67816;SDS011;54614;47.576;7.524;2023-03-14T04:53:25;1.50;;;1.40;;
67816;SDS011;54614;47.576;7.524;2023-03-14T04:55:52;1.35;;;1.25;;
67816;SDS011;54614;47.576;7.524;2023-03-14T04:58:22;1.50;;;1.40;;
67816;SDS011;54614;47.576;7.524;2023-03-14T05:00:49;2.92;;;1.50;;
67816;SDS011;54614;47.576;7.524;2023-03-14T05:03:16;1.98;;;1.60;;
67816;SDS011;54614;47.576;7.524;2023-03-14T05:05:43;1.65;;;1.38;;
67816;SDS011;54614;47.576;7.524;2023-03-14T05:08:09;2.20;;;1.50;;
67816;SDS011;54614;47.576;7.524;2023-03-14T05:10:36;1.60;;;1.50;;
67816;SDS011;54614;47.576;7.524;2023-03-14T05:13:02;4.10;;;1.40;;
67816;SDS011;54614;47.576;7.524;2023-03-14T05:15:28;3.78;;;1.58;;
67816;SDS011;54614;47.576;7.524;2023-03-14T05:17:54;2.35;;;1.30;;
67816;SDS011;54614;47.576;7.524;2023-03-14T05:20:20;2.45;;;1.40;;
67816;SDS011;54614;47.576;7.524;2023-03-14T05:22:46;3.22;;;1.20;;
67816;SDS011;54614;47.576;7.524;2023-03-14T05:25:12;4.20;;;1.27;;
67816;SDS011;54614;47.576;7.524;2023-03-14T05:27:38;1.48;;;1.23;;
67816;SDS011;54614;47.576;7.524;2023-03-14T05:30:04;1.33;;;1.15;;
67816;SDS011;54614;47.576;7.524;2023-03-14T05:32:31;1.70;;;1.35;;
67816;SDS011;54614;47.576;7.524;2023-03-14T05:34:57;2.28;;;1.17;;
67816;SDS011;54614;47.576;7.524;2023-03-14T05:37:24;2.42;;;1.20;;
67816;SDS011;54614;47.576;7.524;2023-03-14T05:39:51;0.93;;;0.93;;
67816;SDS011;54614;47.576;7.524;2023-03-14T05:42:17;2.60;;;1.23;;
67816;SDS011;54614;47.576;7.524;2023-03-14T05:44:43;1.40;;;1.30;;
67816;SDS011;54614;47.576;7.524;2023-03-14T05:47:09;2.05;;;1.20;;
67816;SDS011;54614;47.576;7.524;2023-03-14T05:49:35;2.03;;;1.20;;
67816;SDS011;54614;47.576;7.524;2023-03-14T05:52:01;1.95;;;1.00;;
67816;SDS011;54614;47.576;7.524;2023-03-14T05:54:27;2.13;;;1.10;;
67816;SDS011;54614;47.576;7.524;2023-03-14T05:56:53;2.88;;;1.15;;
67816;SDS011;54614;47.576;7.524;2023-03-14T05:59:19;1.20;;;1.10;;
67816;SDS011;54614;47.576;7.524;2023-03-14T06:01:44;1.45;;;1.15;;
67816;SDS011;54614;47.576;7.524;2023-03-14T06:04:10;2.03;;;1.30;;
67816;SDS011;54614;47.576;7.524;2023-03-14T06:06:36;1.40;;;1.17;;
67816;SDS011;54614;47.576;7.524;2023-03-14T06:09:02;2.53;;;1.10;;
67816;SDS011;54614;47.576;7.524;2023-03-14T06:11:28;5.85;;;1.20;;
67816;SDS011;54614;47.576;7.524;2023-03-14T06:13:53;1.83;;;1.15;;
67816;SDS011;54614;47.576;7.524;2023-03-14T06:16:19;2.78;;;1.00;;
67816;SDS011;54614;47.576;7.524;2023-03-14T06:18:45;1.95;;;1.05;;
67816;SDS011;54614;47.576;7.524;2023-03-14T06:21:11;6.90;;;1.20;;
67816;SDS011;54614;47.576;7.524;2023-03-14T06:23:37;1.23;;;1.00;;
67816;SDS011;54614;47.576;7.524;2023-03-14T06:26:04;1.95;;;1.00;;
67816;SDS011;54614;47.576;7.524;2023-03-14T06:28:30;6.47;;;1.25;;
67816;SDS011;54614;47.576;7.524;2023-03-14T06:30:56;8.60;;;1.20;;
67816;SDS011;54614;47.576;7.524;2023-03-14T06:33:23;7.47;;;1.30;;
67816;SDS011;54614;47.576;7.524;2023-03-14T06:35:49;4.32;;;1.23;;
67816;SDS011;54614;47.576;7.524;2023-03-14T06:38:15;5.25;;;1.30;;
67816;SDS011;54614;47.576;7.524;2023-03-14T06:40:41;2.53;;;1.10;;
67816;SDS011;54614;47.576;7.524;2023-03-14T06:43:07;7.63;;;1.33;;
67816;SDS011;54614;47.576;7.524;2023-03-14T06:45:32;2.25;;;1.20;;
67816;SDS011;54614;47.576;7.524;2023-03-14T06:47:58;10.82;;;1.30;;
67816;SDS011;54614;47.576;7.524;2023-03-14T06:50:24;4.63;;;1.20;;
67816;SDS011;54614;47.576;7.524;2023-03-14T06:52:50;5.72;;;1.30;;
67816;SDS011;54614;47.576;7.524;2023-03-14T06:55:16;6.68;;;1.40;;
67816;SDS011;54614;47.576;7.524;2023-03-14T06:57:42;9.15;;;1.27;;
67816;SDS011;54614;47.576;7.524;2023-03-14T07:00:09;10.85;;;1.75;;
67816;SDS011;54614;47.576;7.524;2023-03-14T07:02:36;5.40;;;1.20;;
67816;SDS011;54614;47.576;7.524;2023-03-14T07:05:02;9.57;;;1.63;;
67816;SDS011;54614;47.576;7.524;2023-03-14T07:07:29;10.70;;;1.40;;
67816;SDS011;54614;47.576;7.524;2023-03-14T07:09:55;6.97;;;1.30;;
67816;SDS011;54614;47.576;7.524;2023-03-14T07:12:20;8.20;;;1.38;;
67816;SDS011;54614;47.576;7.524;2023-03-14T07:14:46;8.15;;;1.50;;
67816;SDS011;54614;47.576;7.524;2023-03-14T07:17:12;4.78;;;1.05;;
67816;SDS011;54614;47.576;7.524;2023-03-14T07:19:38;6.85;;;1.20;;
67816;SDS011;54614;47.576;7.524;2023-03-14T07:22:04;10.73;;;1.30;;
67816;SDS011;54614;47.576;7.524;2023-03-14T07:24:30;8.80;;;1.10;;
67816;SDS011;54614;47.576;7.524;2023-03-14T07:26:56;4.05;;;1.10;;
67816;SDS011;54614;47.576;7.524;2023-03-14T07:29:22;6.90;;;1.20;;
67816;SDS011;54614;47.576;7.524;2023-03-14T07:31:48;6.82;;;1.10;;
67816;SDS011;54614;47.576;7.524;2023-03-14T07:34:14;3.97;;;1.23;;
67816;SDS011;54614;47.576;7.524;2023-03-14T07:36:40;6.38;;;1.30;;
67816;SDS011;54614;47.576;7.524;2023-03-14T07:39:06;5.53;;;1.20;;
67816;SDS011;54614;47.576;7.524;2023-03-14T07:41:32;6.38;;;1.25;;
67816;SDS011;54614;47.576;7.524;2023-03-14T07:43:58;4.38;;;1.33;;
67816;SDS011;54614;47.576;7.524;2023-03-14T07:46:24;5.72;;;1.38;;
67816;SDS011;54614;47.576;7.524;2023-03-14T07:48:50;4.63;;;1.15;;
67816;SDS011;54614;47.576;7.524;2023-03-14T07:51:16;4.05;;;1.35;;
67816;SDS011;54614;47.576;7.524;2023-03-14T07:53:41;7.25;;;1.27;;
67816;SDS011;54614;47.576;7.524;2023-03-14T07:56:08;6.05;;;1.30;;
67816;SDS011;54614;47.576;7.524;2023-03-14T07:58:34;4.03;;;1.33;;
67816;SDS011;54614;47.576;7.524;2023-03-14T08:01:00;3.33;;;1.10;;
67816;SDS011;54614;47.576;7.524;2023-03-14T08:03:26;5.85;;;1.20;;
67816;SDS011;54614;47.576;7.524;2023-03-14T08:05:52;3.88;;;1.20;;
67816;SDS011;54614;47.576;7.524;2023-03-14T08:08:18;6.50;;;1.38;;
67816;SDS011;54614;47.576;7.524;2023-03-14T08:10:44;2.67;;;1.20;;
67816;SDS011;54614;47.576;7.524;2023-03-14T08:13:11;2.28;;;0.98;;
67816;SDS011;54614;47.576;7.524;2023-03-14T08:15:37;6.70;;;1.42;;
67816;SDS011;54614;47.576;7.524;2023-03-14T08:18:03;4.03;;;1.35;;
67816;SDS011;54614;47.576;7.524;2023-03-14T08:20:30;7.70;;;1.50;;
67816;SDS011;54614;47.576;7.524;2023-03-14T08:23:00;10.20;;;1.58;;
67816;SDS011;54614;47.576;7.524;2023-03-14T08:25:27;7.82;;;1.17;;
67816;SDS011;54614;47.576;7.524;2023-03-14T08:27:54;4.38;;;1.30;;
67816;SDS011;54614;47.576;7.524;2023-03-14T08:30:21;6.13;;;1.35;;
67816;SDS011;54614;47.576;7.524;2023-03-14T08:32:47;4.95;;;1.23;;
67816;SDS011;54614;47.576;7.524;2023-03-14T08:35:13;3.75;;;1.20;;
67816;SDS011;54614;47.576;7.524;2023-03-14T08:37:40;3.22;;;1.13;;
67816;SDS011;54614;47.576;7.524;2023-03-14T08:40:06;7.68;;;1.25;;
67816;SDS011;54614;47.576;7.524;2023-03-14T08:42:35;2.30;;;1.10;;
67816;SDS011;54614;47.576;7.524;2023-03-14T08:45:02;6.47;;;1.10;;
67816;SDS011;54614;47.576;7.524;2023-03-14T08:47:29;2.78;;;1.30;;
67816;SDS011;54614;47.576;7.524;2023-03-14T08:49:55;5.35;;;1.30;;
67816;SDS011;54614;47.576;7.524;2023-03-14T08:52:21;2.13;;;0.90;;
67816;SDS011;54614;47.576;7.524;2023-03-14T08:54:48;7.10;;;1.42;;
67816;SDS011;54614;47.576;7.524;2023-03-14T08:57:14;3.10;;;1.08;;
67816;SDS011;54614;47.576;7.524;2023-03-14T08:59:40;7.72;;;1.08;;
67816;SDS011;54614;47.576;7.524;2023-03-14T09:02:05;3.67;;;1.00;;
67816;SDS011;54614;47.576;7.524;2023-03-14T09:04:35;1.90;;;1.10;;
67816;SDS011;54614;47.576;7.524;2023-03-14T09:07:01;3.45;;;1.02;;
67816;SDS011;54614;47.576;7.524;2023-03-14T09:09:28;2.83;;;0.93;;
67816;SDS011;54614;47.576;7.524;2023-03-14T09:11:55;3.35;;;1.00;;
67816;SDS011;54614;47.576;7.524;2023-03-14T09:14:21;2.42;;;0.90;;
67816;SDS011;54614;47.576;7.524;2023-03-14T09:16:48;1.38;;;1.05;;
67816;SDS011;54614;47.576;7.524;2023-03-14T09:19:14;1.15;;;1.00;;
67816;SDS011;54614;47.576;7.524;2023-03-14T09:21:40;1.60;;;0.93;;
67816;SDS011;54614;47.576;7.524;2023-03-14T09:24:06;1.25;;;1.00;;
67816;SDS011;54614;47.576;7.524;2023-03-14T09:26:32;4.40;;;0.98;;
67816;SDS011;54614;47.576;7.524;2023-03-14T09:28:57;1.55;;;1.23;;
67816;SDS011;54614;47.576;7.524;2023-03-14T09:31:23;4.10;;;1.05;;
67816;SDS011;54614;47.576;7.524;2023-03-14T09:33:49;4.47;;;0.95;;
67816;SDS011;54614;47.576;7.524;2023-03-14T09:36:15;3.63;;;1.00;;
67816;SDS011;54614;47.576;7.524;2023-03-14T09:38:41;2.60;;;1.10;;
67816;SDS011;54614;47.576;7.524;2023-03-14T09:41:21;1.70;;;1.00;;
67816;SDS011;54614;47.576;7.524;2023-03-14T09:44:02;4.57;;;1.10;;
67816;SDS011;54614;47.576;7.524;2023-03-14T09:46:59;1.20;;;1.00;;
67816;SDS011;54614;47.576;7.524;2023-03-14T09:49:34;1.90;;;0.90;;
67816;SDS011;54614;47.576;7.524;2023-03-14T09:52:07;1.42;;;1.00;;
67816;SDS011;54614;47.576;7.524;2023-03-14T09:54:45;3.63;;;1.00;;
67816;SDS011;54614;47.576;7.524;2023-03-14T09:57:17;0.77;;;0.77;;
67816;SDS011;54614;47.576;7.524;2023-03-14T09:59:48;2.75;;;0.90;;
67816;SDS011;54614;47.576;7.524;2023-03-14T10:02:18;2.00;;;0.90;;
67816;SDS011;54614;47.576;7.524;2023-03-14T10:04:51;3.67;;;1.00;;
67816;SDS011;54614;47.576;7.524;2023-03-14T10:07:28;1.90;;;0.90;;
67816;SDS011;54614;47.576;7.524;2023-03-14T10:09:57;3.92;;;0.82;;
67816;SDS011;54614;47.576;7.524;2023-03-14T10:12:34;0.93;;;0.85;;
67816;SDS011;54614;47.576;7.524;2023-03-14T10:15:07;1.40;;;0.80;;
67816;SDS011;54614;47.576;7.524;2023-03-14T10:17:48;2.25;;;1.00;;
67816;SDS011;54614;47.576;7.524;2023-03-14T10:23:40;2.58;;;0.90;;
67816;SDS011;54614;47.576;7.524;2023-03-14T10:26:06;1.23;;;0.90;;
67816;SDS011;54614;47.576;7.524;2023-03-14T10:28:45;0.82;;;0.82;;
67816;SDS011;54614;47.576;7.524;2023-03-14T10:31:16;1.02;;;1.00;;
67816;SDS011;54614;47.576;7.524;2023-03-14T10:33:43;2.15;;;1.00;;
67816;SDS011;54614;47.576;7.524;2023-03-14T10:36:29;1.08;;;0.98;;
67816;SDS011;54614;47.576;7.524;2023-03-14T10:39:14;1.98;;;1.00;;
67816;SDS011;54614;47.576;7.524;2023-03-14T10:41:56;1.60;;;1.00;;
67816;SDS011;54614;47.576;7.524;2023-03-14T10:44:45;1.17;;;0.95;;
67816;SDS011;54614;47.576;7.524;2023-03-14T10:47:35;3.45;;;0.90;;
67816;SDS011;54614;47.576;7.524;2023-03-14T10:50:35;4.22;;;0.90;;
67816;SDS011;54614;47.576;7.524;2023-03-14T10:53:02;1.40;;;0.80;;
67816;SDS011;54614;47.576;7.524;2023-03-14T10:55:39;1.70;;;0.90;;
67816;SDS011;54614;47.576;7.524;2023-03-14T11:15:24;3.47;;;0.90;;
67816;SDS011;54614;47.576;7.524;2023-03-14T11:21:14;0.85;;;0.70;;
67816;SDS011;54614;47.576;7.524;2023-03-14T11:24:33;1.55;;;0.90;;
67816;SDS011;54614;47.576;7.524;2023-03-14T11:27:42;1.30;;;0.90;;
67816;SDS011;54614;47.576;7.524;2023-03-14T11:30:17;1.15;;;0.80;;
67816;SDS011;54614;47.576;7.524;2023-03-14T11:36:12;0.93;;;0.75;;
67816;SDS011;54614;47.576;7.524;2023-03-14T11:41:04;0.90;;;0.90;;
67816;SDS011;54614;47.576;7.524;2023-03-14T11:43:53;3.60;;;0.80;;
67816;SDS011;54614;47.576;7.524;2023-03-14T11:46:26;2.22;;;1.00;;
67816;SDS011;54614;47.576;7.524;2023-03-14T11:49:42;0.85;;;0.80;;
67816;SDS011;54614;47.576;7.524;2023-03-14T11:52:25;1.13;;;0.95;;
67816;SDS011;54614;47.576;7.524;2023-03-14T11:57:45;0.70;;;0.70;;
67816;SDS011;54614;47.576;7.524;2023-03-14T12:00:17;0.85;;;0.85;;
67816;SDS011;54614;47.576;7.524;2023-03-14T12:02:53;1.48;;;0.85;;
67816;SDS011;54614;47.576;7.524;2023-03-14T12:05:50;1.90;;;0.82;;
67816;SDS011;54614;47.576;7.524;2023-03-14T12:13:49;0.88;;;0.73;;
67816;SDS011;54614;47.576;7.524;2023-03-14T12:22:08;0.82;;;0.70;;
67816;SDS011;54614;47.576;7.524;2023-03-14T12:24:47;3.67;;;0.77;;
67816;SDS011;54614;47.576;7.524;2023-03-14T12:38:23;1.65;;;0.73;;
67816;SDS011;54614;47.576;7.524;2023-03-14T12:43:42;1.60;;;0.77;;
67816;SDS011;54614;47.576;7.524;2023-03-14T12:48:47;1.55;;;0.70;;
67816;SDS011;54614;47.576;7.524;2023-03-14T12:51:33;0.93;;;0.63;;
67816;SDS011;54614;47.576;7.524;2023-03-14T12:56:55;1.38;;;0.70;;
67816;SDS011;54614;47.576;7.524;2023-03-14T13:02:21;0.60;;;0.57;;
67816;SDS011;54614;47.576;7.524;2023-03-14T13:05:12;1.08;;;0.70;;
67816;SDS011;54614;47.576;7.524;2023-03-14T13:10:16;1.05;;;0.77;;
67816;SDS011;54614;47.576;7.524;2023-03-14T13:15:46;1.35;;;0.88;;
67816;SDS011;54614;47.576;7.524;2023-03-14T13:18:28;1.23;;;0.80;;
67816;SDS011;54614;47.576;7.524;2023-03-14T13:21:10;1.17;;;0.80;;
67816;SDS011;54614;47.576;7.524;2023-03-14T13:26:45;1.60;;;0.70;;
67816;SDS011;54614;47.576;7.524;2023-03-14T13:31:45;1.05;;;0.90;;
67816;SDS011;54614;47.576;7.524;2023-03-14T13:34:13;1.23;;;0.77;;
67816;SDS011;54614;47.576;7.524;2023-03-14T13:36:40;0.70;;;0.70;;
67816;SDS011;54614;47.576;7.524;2023-03-14T13:39:21;0.98;;;0.75;;
67816;SDS011;54614;47.576;7.524;2023-03-14T13:41:54;1.08;;;0.77;;
67816;SDS011;54614;47.576;7.524;2023-03-14T13:44:29;0.70;;;0.70;;
67816;SDS011;54614;47.576;7.524;2023-03-14T13:47:00;1.90;;;0.70;;
67816;SDS011;54614;47.576;7.524;2023-03-14T13:49:29;0.63;;;0.63;;
67816;SDS011;54614;47.576;7.524;2023-03-14T13:52:00;2.22;;;0.80;;
67816;SDS011;54614;47.576;7.524;2023-03-14T13:54:27;0.60;;;0.60;;
67816;SDS011;54614;47.576;7.524;2023-03-14T13:57:00;1.85;;;0.80;;
67816;SDS011;54614;47.576;7.524;2023-03-14T13:59:32;0.90;;;0.90;;
67816;SDS011;54614;47.576;7.524;2023-03-14T14:02:01;0.63;;;0.63;;
67816;SDS011;54614;47.576;7.524;2023-03-14T14:04:37;1.65;;;0.80;;
67816;SDS011;54614;47.576;7.524;2023-03-14T14:07:10;0.70;;;0.70;;
67816;SDS011;54614;47.576;7.524;2023-03-14T14:09:48;0.63;;;0.63;;
67816;SDS011;54614;47.576;7.524;2023-03-14T14:12:17;0.50;;;0.50;;
67816;SDS011;54614;47.576;7.524;2023-03-14T14:15:04;0.98;;;0.70;;
67816;SDS011;54614;47.576;7.524;2023-03-14T14:17:54;0.70;;;0.70;;
67816;SDS011;54614;47.576;7.524;2023-03-14T14:20:30;0.70;;;0.60;;
67816;SDS011;54614;47.576;7.524;2023-03-14T14:23:05;0.60;;;0.60;;
67816;SDS011;54614;47.576;7.524;2023-03-14T14:25:37;0.57;;;0.57;;
67816;SDS011;54614;47.576;7.524;2023-03-14T14:31:15;1.75;;;0.70;;
67816;SDS011;54614;47.576;7.524;2023-03-14T14:33:58;0.75;;;0.60;;
67816;SDS011;54614;47.576;7.524;2023-03-14T14:36:28;1.13;;;0.68;;
67816;SDS011;54614;47.576;7.524;2023-03-14T14:41:44;0.90;;;0.80;;
67816;SDS011;54614;47.576;7.524;2023-03-14T14:44:13;0.73;;;0.73;;
67816;SDS011;54614;47.576;7.524;2023-03-14T14:46:57;0.70;;;0.70;;
67816;SDS011;54614;47.576;7.524;2023-03-14T14:49:28;0.70;;;0.70;;
67816;SDS011;54614;47.576;7.524;2023-03-14T14:52:00;0.90;;;0.70;;
67816;SDS011;54614;47.576;7.524;2023-03-14T14:54:37;0.70;;;0.70;;
67816;SDS011;54614;47.576;7.524;2023-03-14T14:57:20;0.60;;;0.60;;
67816;SDS011;54614;47.576;7.524;2023-03-14T15:00:03;0.57;;;0.57;;
67816;SDS011;54614;47.576;7.524;2023-03-14T15:02:58;0.63;;;0.63;;
67816;SDS011;54614;47.576;7.524;2023-03-14T15:05:25;0.77;;;0.70;;
67816;SDS011;54614;47.576;7.524;2023-03-14T15:07:55;0.60;;;0.60;;
67816;SDS011;54614;47.576;7.524;2023-03-14T15:10:23;0.60;;;0.60;;
67816;SDS011;54614;47.576;7.524;2023-03-14T15:12:50;1.40;;;0.73;;
67816;SDS011;54614;47.576;7.524;2023-03-14T15:15:17;0.70;;;0.60;;
67816;SDS011;54614;47.576;7.524;2023-03-14T15:17:44;0.68;;;0.60;;
67816;SDS011;54614;47.576;7.524;2023-03-14T15:20:11;0.80;;;0.80;;
67816;SDS011;54614;47.576;7.524;2023-03-14T15:22:40;0.85;;;0.73;;
67816;SDS011;54614;47.576;7.524;2023-03-14T15:25:07;0.70;;;0.70;;
67816;SDS011;54614;47.576;7.524;2023-03-14T15:27:34;0.70;;;0.70;;
67816;SDS011;54614;47.576;7.524;2023-03-14T15:30:01;1.13;;;0.60;;
67816;SDS011;54614;47.576;7.524;2023-03-14T15:32:28;0.57;;;0.55;;
67816;SDS011;54614;47.576;7.524;2023-03-14T15:34:54;1.40;;;0.70;;
67816;SDS011;54614;47.576;7.524;2023-03-14T15:37:20;0.73;;;0.70;;
67816;SDS011;54614;47.576;7.524;2023-03-14T15:39:46;0.82;;;0.73;;
67816;SDS011;54614;47.576;7.524;2023-03-14T15:42:12;1.20;;;0.70;;
67816;SDS011;54614;47.576;7.524;2023-03-14T15:44:38;0.70;;;0.70;;
67816;SDS011;54614;47.576;7.524;2023-03-14T15:47:04;0.60;;;0.60;;
67816;SDS011;54614;47.576;7.524;2023-03-14T15:49:31;0.70;;;0.70;;
67816;SDS011;54614;47.576;7.524;2023-03-14T15:51:57;0.75;;;0.70;;
67816;SDS011;54614;47.576;7.524;2023-03-14T15:54:23;0.70;;;0.70;;
67816;SDS011;54614;47.576;7.524;2023-03-14T15:56:57;0.68;;;0.68;;
67816;SDS011;54614;47.576;7.524;2023-03-14T15:59:23;0.63;;;0.63;;
67816;SDS011;54614;47.576;7.524;2023-03-14T16:01:50;1.08;;;0.77;;
67816;SDS011;54614;47.576;7.524;2023-03-14T16:04:16;1.35;;;0.70;;
67816;SDS011;54614;47.576;7.524;2023-03-14T16:06:42;0.57;;;0.57;;
67816;SDS011;54614;47.576;7.524;2023-03-14T16:09:10;0.70;;;0.70;;
67816;SDS011;54614;47.576;7.524;2023-03-14T16:11:39;1.10;;;0.50;;
67816;SDS011;54614;47.576;7.524;2023-03-14T16:14:05;1.23;;;0.70;;
67816;SDS011;54614;47.576;7.524;2023-03-14T16:16:31;1.25;;;0.70;;
67816;SDS011;54614;47.576;7.524;2023-03-14T16:18:57;0.73;;;0.70;;
67816;SDS011;54614;47.576;7.524;2023-03-14T16:21:23;0.52;;;0.52;;
67816;SDS011;54614;47.576;7.524;2023-03-14T16:23:49;1.27;;;0.70;;
67816;SDS011;54614;47.576;7.524;2023-03-14T16:26:16;0.60;;;0.60;;
67816;SDS011;54614;47.576;7.524;2023-03-14T16:28:45;0.73;;;0.70;;